FW0363 Weather Reports


Display with metric or nautical units.
time (UTC)temp
F
wind
direction
speed
MPH
gust
MPH
rain 1hr
in
rain 24hr
in
rain mn
in
humidity
%
barometer
mb
20240228232021 54 95 8.0 12.0 0.00 0.00 0.00 45 1021.3
20240228231026 54 90 9.0 13.0 0.00 0.00 0.00 43 1021.6
20240228230028 55 101 7.0 10.0 0.00 0.00 0.00 41 1021.6
20240228225032 56 94 7.0 9.0 0.00 0.00 0.00 41 1021.6
20240228224015 57 98 7.0 10.0 0.00 0.00 0.00 40 1021.6
20240228223018 57 93 7.0 11.0 0.00 0.00 0.00 40 1021.5
20240228222021 57 82 6.0 10.0 0.00 0.00 0.00 38 1021.3
20240228221020 58 80 8.0 14.0 0.00 0.00 0.00 37 1021.6
20240228220033 59 86 7.0 16.0 0.00 0.00 0.00 38 1021.8
20240228215038 59 105 7.0 12.0 0.00 0.00 0.00 36 1022.0
20240228214021 59 84 6.0 8.0 0.00 0.00 0.00 37 1022.4
20240228213044 57 60 6.0 10.0 0.00 0.00 0.00 37 1022.7
20240228212047 57 89 5.0 8.0 0.00 0.00 0.00 38 1022.7
20240228211050 55 100 7.0 11.0 0.00 0.00 0.00 39 1022.7
20240228210034 55 111 8.0 13.0 0.00 0.00 0.00 39 1022.9
20240228205019 55 122 6.0 8.0 0.00 0.00 0.00 40 1023.0
20240228204021 54 95 8.0 12.0 0.00 0.00 0.00 40 1022.9
20240228203024 55 94 8.0 12.0 0.00 0.00 0.00 40 1022.9
20240228202027 55 97 10.0 14.0 0.00 0.00 0.00 40 1022.9
20240228201030 55 121 7.0 9.0 0.00 0.00 0.00 40 1023.3
20240228200028 55 95 6.0 11.0 0.00 0.00 0.00 40 1023.3
20240228195018 55 80 8.0 12.0 0.00 0.00 0.00 40 1023.3
20240228194021 55 96 8.0 11.0 0.00 0.00 0.00 39 1023.3
20240228193018 56 89 8.0 13.0 0.00 0.00 0.00 40 1022.8
20240228192015 55 86 7.0 11.0 0.00 0.00 0.00 40 1023.0
20240228191051 56 79 7.0 10.0 0.00 0.00 0.00 40 1023.6
20240228190015 56 110 7.0 9.0 0.00 0.00 0.00 40 1023.3
20240228185018 58 93 4.0 7.0 0.00 0.00 0.00 39 1023.2
20240228184021 58 87 3.0 4.0 0.00 0.00 0.00 40 1023.0
20240228183024 58 112 3.0 6.0 0.00 0.00 0.00 40 1023.1
20240228182107 58 295 2.0 5.0 0.00 0.00 0.00 40 1023.6
20240228181032 58 89 5.0 9.0 0.00 0.00 0.00 40 1023.3
20240228180015 59 87 4.0 7.0 0.00 0.00 0.00 41 1023.1
20240228175019 60 87 6.0 9.0 0.00 0.00 0.00 42 1023.1
20240228174021 60 85 3.0 4.0 0.00 0.00 0.00 43 1023.4
20240228173024 61 88 4.0 5.0 0.00 0.00 0.00 43 1022.7
20240228172028 61 95 3.0 4.0 0.00 0.00 0.00 42 1022.7
20240228171050 60 81 3.0 5.0 0.00 0.00 0.00 41 1022.8
20240228170015 61 180 2.0 5.0 0.00 0.00 0.00 43 1022.9
20240228165018 60 248 0.0 2.0 0.00 0.00 0.00 45 1022.9
20240228164023 60 280 1.0 2.0 0.00 0.00 0.00 46 1022.7
20240228163045 60 270 0.0 2.0 0.00 0.00 0.00 47 1022.6
20240228162022 59 294 1.0 2.0 0.00 0.00 0.00 47 1022.4
20240228161019 59 45 1.0 2.0 0.00 0.00 0.00 47 1022.2
20240228160016 58 270 2.0 4.0 0.00 0.00 0.00 47 1022.1
20240228155019 58 270 1.0 3.0 0.00 0.00 0.00 48 1022.1
20240228154022 57 270 2.0 3.0 0.00 0.00 0.00 49 1022.2
20240228153045 57 250 1.0 2.0 0.00 0.00 0.00 51 1021.9
20240228152029 55 0.0 0.0 0.00 0.00 0.00 53 1021.9
20240228151112 54 270 1.0 3.0 0.00 0.00 0.00 54 1021.7
20240228150016 53 0.0 0.0 0.00 0.00 0.00 57 1021.5
20240228145019 52 267 1.0 2.0 0.00 0.00 0.00 58 1021.3
20240228144022 51 103 0.0 3.0 0.00 0.00 0.00 59 1021.2
20240228143025 50 0.0 0.0 0.00 0.00 0.00 60 1021.3
20240228142028 50 0.0 0.0 0.00 0.00 0.00 60 1021.3
20240228141052 50 0.0 0.0 0.00 0.00 0.00 59 1020.9
20240228140017 50 0.0 0.0 0.00 0.00 0.00 58 1020.8
20240228135019 51 0.0 0.0 0.00 0.00 0.00 56 1020.7
20240228134022 51 0.0 0.0 0.00 0.00 0.00 56 1020.5
20240228133019 52 113 0.0 1.0 0.00 0.00 0.00 56 1020.5
20240228132030 52 0.0 0.0 0.00 0.00 0.00 56 1020.3
20240228131031 52 103 1.0 2.0 0.00 0.00 0.00 56 1020.3
20240228130034 52 119 2.0 2.0 0.00 0.00 0.00 57 1020.3
20240228125021 52 103 1.0 2.0 0.00 0.00 0.00 58 1020.3
20240228124022 52 0.0 0.0 0.00 0.00 0.00 59 1020.3
20240228123026 52 0.0 0.0 0.00 0.00 0.00 59 1020.1
20240228122029 52 100 0.0 2.0 0.00 0.00 0.00 59 1020.3
20240228121032 52 0.0 0.0 0.00 0.00 0.00 59 1020.0
20240228120036 52 248 1.0 2.0 0.00 0.00 0.00 59 1020.1
20240228115033 52 98 0.0 2.0 0.00 0.00 0.00 60 1020.1
20240228114036 52 0.0 0.0 0.00 0.00 0.00 60 1019.9
20240228113036 53 0.0 0.0 0.00 0.00 0.00 60 1020.0
20240228112020 53 0.0 0.0 0.00 0.00 0.00 61 1019.9
20240228111042 53 0.0 0.0 0.00 0.00 0.00 61 1019.6
20240228110031 53 0.0 0.0 0.00 0.00 0.00 61 1019.6
20240228105027 53 104 2.0 2.0 0.00 0.00 0.00 61 1019.5
20240228104024 53 239 1.0 3.0 0.00 0.00 0.00 61 1019.2
20240228103022 53 217 1.0 2.0 0.00 0.00 0.00 62 1019.4
20240228102039 53 255 0.0 3.0 0.00 0.00 0.00 62 1019.3
20240228101028 53 73 1.0 3.0 0.00 0.00 0.00 62 1019.2
20240228100030 53 0.0 0.0 0.00 0.00 0.00 62 1019.3
20240228095055 53 142 1.0 4.0 0.00 0.00 0.00 62 1019.2
20240228094020 53 71 1.0 4.0 0.00 0.00 0.00 62 1019.1
20240228093021 53 259 1.0 2.0 0.00 0.00 0.00 62 1019.3
20240228092045 53 267 2.0 3.0 0.00 0.00 0.00 62 1019.6
20240228091027 53 270 0.0 2.0 0.00 0.00 0.00 62 1019.6
20240228090031 53 113 0.0 2.0 0.00 0.00 0.00 62 1019.6
20240228085054 53 0.0 0.0 0.00 0.00 0.00 62 1019.7
20240228084020 53 90 1.0 2.0 0.00 0.00 0.00 62 1019.8
20240228083022 54 113 0.0 1.0 0.00 0.00 0.00 62 1019.6
20240228082027 54 225 0.0 2.0 0.00 0.00 0.00 62 1019.6
20240228081026 54 270 1.0 3.0 0.00 0.00 0.00 62 1019.4
20240228080026 54 0.0 1.0 0.00 0.00 0.00 62 1019.3
20240228075029 54 305 0.0 2.0 0.00 0.00 0.00 62 1019.2
20240228074026 54 267 2.0 3.0 0.00 0.00 0.00 62 1019.1
20240228073023 54 259 1.0 2.0 0.00 0.00 0.00 62 1019.0
20240228072020 54 265 0.0 2.0 0.00 0.00 0.00 62 1019.1
20240228071039 54 277 1.0 3.0 0.00 0.00 0.00 62 1018.6
20240228070021 54 273 1.0 3.0 0.00 0.00 0.00 62 1018.6
20240228065024 54 10 2.0 4.0 0.00 0.00 0.00 61 1018.6
20240228064027 55 295 2.0 6.0 0.00 0.00 0.00 61 1018.6
20240228063026 55 282 2.0 4.0 0.00 0.00 0.00 61 1018.6
20240228062029 55 271 2.0 4.0 0.00 0.00 0.00 60 1018.9
20240228061049 56 252 1.0 3.0 0.00 0.00 0.00 59 1018.5
20240228060052 56 269 3.0 4.0 0.00 0.00 0.00 58 1018.5
20240228055016 57 267 3.0 5.0 0.00 0.00 0.00 58 1018.5
20240228054019 57 267 3.0 5.0 0.00 0.00 0.00 57 1018.3
20240228053022 58 261 5.0 6.0 0.00 0.00 0.00 57 1018.1
20240228052047 58 267 4.0 5.0 0.00 0.00 0.00 56 1017.9
20240228051029 58 270 4.0 7.0 0.00 0.00 0.00 56 1017.7
20240228050032 58 274 5.0 9.0 0.00 0.00 0.00 55 1017.4
20240228045017 59 272 4.0 5.0 0.00 0.00 0.00 55 1017.2
20240228044020 59 271 5.0 8.0 0.00 0.00 0.00 54 1017.4
20240228043043 59 278 6.0 10.0 0.00 0.00 0.00 54 1017.3
20240228042026 59 262 5.0 8.0 0.00 0.00 0.00 53 1017.7
20240228041023 60 260 5.0 8.0 0.00 0.00 0.00 52 1017.4
20240228040020 60 279 5.0 7.0 0.00 0.00 0.00 51 1017.4
20240228035017 61 279 6.0 9.0 0.00 0.00 0.00 50 1017.3
20240228034020 61 301 4.0 6.0 0.00 0.00 0.00 47 1017.2
20240228033024 61 262 4.0 5.0 0.00 0.00 0.00 45 1017.0
20240228032026 62 278 5.0 7.0 0.00 0.00 0.00 44 1016.7
20240228031030 62 280 5.0 8.0 0.00 0.00 0.00 43 1016.7
20240228030033 62 280 6.0 10.0 0.00 0.00 0.00 42 1016.6
20240228025019 63 294 4.0 6.0 0.00 0.00 0.00 41 1016.5
20240228024021 63 285 5.0 7.0 0.00 0.00 0.00 40 1016.3
20240228023024 64 284 5.0 7.0 0.00 0.00 0.00 40 1015.8
20240228022027 64 266 5.0 8.0 0.00 0.00 0.00 39 1016.0
20240228021030 65 288 5.0 6.0 0.00 0.00 0.00 38 1015.7
20240228020033 65 277 6.0 12.0 0.00 0.00 0.00 37 1015.6
20240228015059 66 270 6.0 9.0 0.00 0.00 0.00 35 1015.6
20240228014021 66 266 6.0 10.0 0.00 0.00 0.00 34 1015.4
20240228013024 67 273 7.0 9.0 0.00 0.00 0.00 31 1015.4
20240228012027 67 268 9.0 15.0 0.00 0.00 0.00 30 1015.3
20240228011030 68 277 8.0 15.0 0.00 0.00 0.00 30 1015.1
20240228010015 68 267 12.0 16.0 0.00 0.00 0.00 30 1015.0
20240228005018 68 272 10.0 15.0 0.00 0.00 0.00 29 1014.9
20240228004022 69 288 12.0 16.0 0.00 0.00 0.00 29 1014.8
20240228003018 69 274 12.0 15.0 0.00 0.00 0.00 28 1014.5
20240228002030 69 273 11.0 13.0 0.00 0.00 0.00 28 1014.4
20240228001030 70 265 11.0 15.0 0.00 0.00 0.00 27 1014.1
20240228000015 70 276 10.0 18.0 0.00 0.00 0.00 26 1014.0
20240227235018 71 275 9.0 14.0 0.00 0.00 0.00 25 1014.0
20240227234022 71 273 11.0 14.0 0.00 0.00 0.00 25 1013.9
20240227233025 72 265 10.0 19.0 0.00 0.00 0.00 24 1013.7